Time;durP1;ratioP1;P1;durP2;ratioP2;P2;SDS_P1;SDS_P2;PMS_P1;PMS_P2;Temp;Humidity;BMP_temperature;BMP_pressure;BME280_temperature;BME280_humidity;BME280_pressure;Samples;Min_cycle;Max_cycle;Signal;HPM_P1;HPM_P2
2023/10/21 00:01:06;;;;;;;;;;;;;;;14.40;72.95;95525.13;4974006;28;19922;-62
2023/10/21 00:03:34;;;;;;;;;;;;;;;14.38;72.81;95522.00;4961459;28;19949;-62
2023/10/21 00:06:03;;;;;;;;;;;;;;;14.39;72.52;95532.56;4972006;28;19926;-62
2023/10/21 00:08:31;;;;;;;;;;;;;;;14.37;72.71;95525.91;4960655;28;19922;-62
2023/10/21 00:11:05;;;;;;;;;;;;;;;14.39;72.65;95535.28;4973961;28;19941;-62
2023/10/21 00:13:33;;;;;;;;;;;;;;;14.41;72.62;95532.16;4968881;28;19930;-62
2023/10/21 00:16:01;;;;;;;;;;;;;;;14.40;72.34;95536.06;4972189;28;19926;-62
2023/10/21 00:18:28;;;;;;;;;;;;;;;14.38;72.46;95544.66;4970922;28;19948;-62
2023/10/21 00:20:56;;;;;;;;;;;;;;;14.42;72.44;95544.63;4965013;28;20348;-63
2023/10/21 00:23:24;;;;;;;;;;;;;;;14.41;72.42;95540.34;4962272;28;19934;-62
2023/10/21 00:25:52;;;;;;;;;;;;;;;14.39;72.50;95534.50;4971743;28;19926;-62
2023/10/21 00:28:21;;;;;;;;;;;;;;;14.36;72.35;95546.22;4967497;28;20504;-63
2023/10/21 00:30:49;;;;;;;;;;;;;;;14.34;72.61;95552.06;4949517;29;20399;-62
2023/10/21 00:33:17;;;;;;;;;;;;;;;14.30;72.48;95548.56;4970102;28;20293;-62
2023/10/21 00:35:46;;;;;;;;;;;;;;;14.32;72.50;95556.34;4952722;28;19926;-63
2023/10/21 00:38:13;;;;;;;;;;;;;;;14.29;72.87;95557.94;4967096;28;19930;-62
2023/10/21 00:40:49;;;;;;;;;;;;;;;14.35;72.65;95563.78;4967646;28;19961;-62
2023/10/21 00:43:34;;;;;;;;;;;;;;;14.30;72.17;95564.16;4947192;28;19976;-62
2023/10/21 00:46:05;;;;;;;;;;;;;;;14.32;72.36;95567.28;4968500;28;19961;-62
2023/10/21 00:48:33;;;;;;;;;;;;;;;14.31;72.30;95571.19;4964483;28;19965;-63
2023/10/21 00:51:01;;;;;;;;;;;;;;;14.26;72.18;95568.84;4946788;28;19927;-63
2023/10/21 00:53:32;;;;;;;;;;;;;;;14.27;72.33;95575.88;4968457;28;19963;-62
2023/10/21 00:56:00;;;;;;;;;;;;;;;14.24;72.49;95576.66;4954685;28;19933;-62
2023/10/21 00:58:30;;;;;;;;;;;;;;;14.21;72.37;95582.91;4945456;28;19930;-62
2023/10/21 01:01:01;;;;;;;;;;;;;;;14.16;72.45;95584.84;4971719;28;19977;-62
2023/10/21 01:03:30;;;;;;;;;;;;;;;14.22;72.30;95579.78;4971735;28;19926;-62
2023/10/21 01:05:58;;;;;;;;;;;;;;;14.22;72.01;95582.53;4968338;28;19928;-62
2023/10/21 01:08:26;;;;;;;;;;;;;;;14.22;71.86;95579.00;4971289;28;19922;-62
2023/10/21 01:10:54;;;;;;;;;;;;;;;14.20;71.90;95586.81;4971099;28;20374;-62
2023/10/21 01:13:22;;;;;;;;;;;;;;;14.20;71.73;95589.53;4948242;28;19953;-62
2023/10/21 01:15:50;;;;;;;;;;;;;;;14.17;71.28;95591.13;4972573;28;19926;-62
2023/10/21 01:18:19;;;;;;;;;;;;;;;14.10;71.54;95602.00;4950479;28;19976;-62
2023/10/21 01:20:52;;;;;;;;;;;;;;;14.11;71.79;95600.84;4948456;28;20395;-62
2023/10/21 01:23:21;;;;;;;;;;;;;;;14.10;71.75;95599.28;4950235;28;19922;-63
2023/10/21 01:25:48;;;;;;;;;;;;;;;14.10;71.93;95610.22;4945634;28;20054;-62
2023/10/21 01:28:17;;;;;;;;;;;;;;;14.08;71.63;95607.09;4968250;28;19922;-62
2023/10/21 01:30:45;;;;;;;;;;;;;;;14.01;72.00;95618.81;4964842;28;19922;-62
2023/10/21 01:33:13;;;;;;;;;;;;;;;14.00;72.25;95619.94;4971350;28;19937;-62
2023/10/21 01:35:43;;;;;;;;;;;;;;;14.00;72.07;95630.88;4970033;28;19922;-62
2023/10/21 01:38:11;;;;;;;;;;;;;;;14.00;71.74;95633.59;4967888;28;19944;-62
2023/10/21 01:40:40;;;;;;;;;;;;;;;13.97;71.72;95637.13;4946537;28;21614;-62
2023/10/21 01:43:08;;;;;;;;;;;;;;;13.81;72.01;95625.78;4969171;28;19926;-62
2023/10/21 01:45:36;;;;;;;;;;;;;;;13.77;72.45;95644.09;4969802;28;19922;-63
2023/10/21 01:48:04;;;;;;;;;;;;;;;13.77;72.63;95639.41;4967984;28;19977;-63
2023/10/21 01:50:32;;;;;;;;;;;;;;;13.76;73.05;95643.31;4968513;28;19933;-62
2023/10/21 01:53:00;;;;;;;;;;;;;;;13.83;72.87;95645.28;4966300;28;19926;-62
2023/10/21 01:55:28;;;;;;;;;;;;;;;13.86;72.64;95650.75;4953168;28;20390;-63
2023/10/21 01:57:57;;;;;;;;;;;;;;;13.89;72.53;95651.91;4963342;28;20454;-62
2023/10/21 02:00:25;;;;;;;;;;;;;;;13.92;72.35;95651.16;4964740;28;20423;-62
2023/10/21 02:02:54;;;;;;;;;;;;;;;13.89;72.07;95660.09;4966094;28;20372;-62
2023/10/21 02:05:22;;;;;;;;;;;;;;;13.86;72.51;95671.81;4958734;28;19932;-62
2023/10/21 02:07:51;;;;;;;;;;;;;;;13.87;71.90;95657.78;4970568;28;20336;-62
2023/10/21 02:10:19;;;;;;;;;;;;;;;13.85;71.92;95664.78;4950888;28;19922;-62
2023/10/21 02:12:46;;;;;;;;;;;;;;;13.83;72.23;95661.66;4969050;28;19923;-62
2023/10/21 02:15:16;;;;;;;;;;;;;;;13.77;71.79;95661.25;4966616;28;19926;-62
2023/10/21 02:17:44;;;;;;;;;;;;;;;13.77;72.13;95671.38;4970433;28;19922;-62
2023/10/21 02:20:14;;;;;;;;;;;;;;;13.78;72.20;95678.41;4955742;28;19934;-62
2023/10/21 02:22:41;;;;;;;;;;;;;;;13.75;72.33;95684.66;4970630;28;19922;-62
2023/10/21 02:25:11;;;;;;;;;;;;;;;13.74;72.49;95685.78;4966970;28;19922;-62
2023/10/21 02:27:41;;;;;;;;;;;;;;;13.70;72.37;95701.41;4968657;28;19922;-62
2023/10/21 02:30:10;;;;;;;;;;;;;;;13.71;72.66;95702.97;4968776;28;19930;-62
2023/10/21 02:32:42;;;;;;;;;;;;;;;13.72;72.73;95704.50;4970139;28;19961;-63
2023/10/21 02:35:10;;;;;;;;;;;;;;;13.77;72.70;95712.31;4962465;28;19922;-62
2023/10/21 02:37:40;;;;;;;;;;;;;;;13.73;72.84;95714.25;4950047;28;19922;-62
2023/10/21 02:40:08;;;;;;;;;;;;;;;13.77;72.38;95715.06;4958900;28;19922;-62
2023/10/21 02:42:37;;;;;;;;;;;;;;;13.74;73.02;95729.47;4964875;28;19934;-63
2023/10/21 02:45:05;;;;;;;;;;;;;;;13.74;73.31;95735.72;4949022;28;19933;-62
2023/10/21 02:47:34;;;;;;;;;;;;;;;13.78;72.90;95730.25;4976478;28;20276;-62
2023/10/21 02:50:03;;;;;;;;;;;;;;;13.82;72.46;95731.06;4970388;28;19926;-63
2023/10/21 02:52:31;;;;;;;;;;;;;;;13.81;72.02;95740.41;4969171;28;19926;-63
2023/10/21 02:54:59;;;;;;;;;;;;;;;13.83;72.22;95732.63;4970480;28;19926;-62
2023/10/21 02:57:26;;;;;;;;;;;;;;;13.83;72.17;95738.06;4965531;28;19927;-62
2023/10/21 02:59:54;;;;;;;;;;;;;;;13.88;72.04;95741.22;4951855;28;19922;-63
2023/10/21 03:02:22;;;;;;;;;;;;;;;13.91;71.55;95734.22;4958197;28;19923;-62
2023/10/21 03:04:51;;;;;;;;;;;;;;;13.91;71.21;95744.34;4951545;28;19926;-62
2023/10/21 03:07:20;;;;;;;;;;;;;;;13.94;70.79;95758.00;4967782;28;19969;-62
2023/10/21 03:09:48;;;;;;;;;;;;;;;13.98;70.51;95750.59;4967494;28;19922;-62
2023/10/21 03:12:16;;;;;;;;;;;;;;;14.00;70.19;95761.13;4970986;28;20017;-62
2023/10/21 03:14:43;;;;;;;;;;;;;;;14.03;70.33;95761.16;4972738;28;19922;-62
2023/10/21 03:17:11;;;;;;;;;;;;;;;14.04;70.07;95759.97;4955498;28;20456;-62
2023/10/21 03:19:39;;;;;;;;;;;;;;;14.11;70.33;95765.47;4969676;28;19936;-62
2023/10/21 03:22:06;;;;;;;;;;;;;;;14.13;69.56;95767.81;4972328;28;19930;-63
2023/10/21 03:24:35;;;;;;;;;;;;;;;14.15;69.21;95771.69;4971751;28;19922;-63
2023/10/21 03:27:04;;;;;;;;;;;;;;;14.09;68.34;95775.97;4953034;28;19922;-62
2023/10/21 03:29:32;;;;;;;;;;;;;;;14.11;68.78;95787.31;4972857;28;19937;-62
2023/10/21 03:31:59;;;;;;;;;;;;;;;14.13;68.84;95790.44;4968170;28;19937;-62
2023/10/21 03:34:30;;;;;;;;;;;;;;;14.15;68.82;95785.34;4972144;28;20265;-63
2023/10/21 03:36:59;;;;;;;;;;;;;;;14.22;68.72;95797.47;4974404;28;19922;-62
2023/10/21 03:39:27;;;;;;;;;;;;;;;14.20;69.60;95800.59;4971537;28;19952;-62
2023/10/21 03:41:56;;;;;;;;;;;;;;;14.25;69.11;95797.47;4951395;28;20530;-62
2023/10/21 03:44:24;;;;;;;;;;;;;;;14.23;69.59;95807.25;4966563;28;19946;-62
2023/10/21 03:46:52;;;;;;;;;;;;;;;14.26;69.70;95804.50;4971454;28;19926;-62
2023/10/21 03:49:20;;;;;;;;;;;;;;;14.29;68.83;95802.97;4966171;28;20004;-62
2023/10/21 03:51:51;;;;;;;;;;;;;;;14.26;68.95;95804.50;4965254;28;19961;-63
2023/10/21 03:54:18;;;;;;;;;;;;;;;14.26;68.68;95809.19;4970000;28;19929;-62
2023/10/21 03:56:46;;;;;;;;;;;;;;;14.29;68.73;95813.88;4970540;28;20384;-62
2023/10/21 03:59:15;;;;;;;;;;;;;;;14.25;68.22;95813.09;4970389;28;19922;-63
2023/10/21 04:01:43;;;;;;;;;;;;;;;14.21;68.65;95815.03;4971262;28;20386;-63
2023/10/21 04:04:10;;;;;;;;;;;;;;;14.22;68.33;95814.66;4967437;28;20383;-63
2023/10/21 04:06:38;;;;;;;;;;;;;;;14.21;68.14;95825.94;4967589;28;20364;-62
2023/10/21 04:09:07;;;;;;;;;;;;;;;14.17;68.54;95836.88;4972986;28;19928;-62
2023/10/21 04:11:35;;;;;;;;;;;;;;;14.19;68.85;95836.47;4973845;28;19977;-62
2023/10/21 04:14:05;;;;;;;;;;;;;;;14.19;67.93;95837.25;4970669;28;19922;-62
2023/10/21 04:16:34;;;;;;;;;;;;;;;14.14;67.88;95834.91;4973899;28;19981;-63
2023/10/21 04:19:01;;;;;;;;;;;;;;;14.16;68.50;95847.00;4973345;28;19926;-62
2023/10/21 04:21:29;;;;;;;;;;;;;;;14.15;68.07;95844.66;4969337;28;19922;-62
2023/10/21 04:23:57;;;;;;;;;;;;;;;14.21;67.95;95855.97;4972668;28;19922;-62
2023/10/21 04:26:25;;;;;;;;;;;;;;;14.30;67.32;95859.16;4965212;28;19952;-63
2023/10/21 04:28:52;;;;;;;;;;;;;;;14.28;66.77;95866.97;4972853;28;19930;-62
2023/10/21 04:31:20;;;;;;;;;;;;;;;14.36;66.59;95871.25;4973631;28;19929;-62
2023/10/21 04:33:49;;;;;;;;;;;;;;;14.39;65.93;95867.78;4973286;28;19930;-63
2023/10/21 04:36:18;;;;;;;;;;;;;;;14.40;66.55;95874.78;4967900;28;20292;-62
2023/10/21 04:38:46;;;;;;;;;;;;;;;14.47;65.80;95876.75;4968695;28;20295;-62
2023/10/21 04:41:31;;;;;;;;;;;;;;;14.51;66.13;95875.63;4972122;28;19949;-62
2023/10/21 04:43:59;;;;;;;;;;;;;;;14.59;65.92;95879.94;4965858;28;20434;-62
2023/10/21 04:46:27;;;;;;;;;;;;;;;14.57;65.19;95890.47;4967634;28;19969;-65
2023/10/21 04:48:57;;;;;;;;;;;;;;;14.65;65.56;95899.50;4964450;28;19929;-62
2023/10/21 04:51:25;;;;;;;;;;;;;;;14.67;64.90;95899.88;4970566;28;19926;-62
2023/10/21 04:53:53;;;;;;;;;;;;;;;14.71;65.03;95897.16;4973858;28;19926;-62
2023/10/21 04:56:21;;;;;;;;;;;;;;;14.77;64.97;95909.28;4972557;28;20041;-62
2023/10/21 04:58:49;;;;;;;;;;;;;;;14.81;64.85;95915.53;4962986;28;20277;-62
2023/10/21 05:01:17;;;;;;;;;;;;;;;14.81;64.72;95919.06;4967660;28;19969;-62
2023/10/21 05:03:45;;;;;;;;;;;;;;;14.80;64.63;95922.16;4970856;28;19976;-62
2023/10/21 05:06:14;;;;;;;;;;;;;;;14.84;64.59;95920.22;4963032;28;19929;-62
2023/10/21 05:08:42;;;;;;;;;;;;;;;14.90;64.27;95929.59;4966448;28;19926;-62
2023/10/21 05:11:10;;;;;;;;;;;;;;;14.84;64.48;95933.88;4965225;28;19922;-62
2023/10/21 05:13:37;;;;;;;;;;;;;;;14.86;64.96;95939.75;4972359;28;19953;-63
2023/10/21 05:16:05;;;;;;;;;;;;;;;14.88;64.64;95954.59;4959359;28;19926;-62
2023/10/21 05:18:33;;;;;;;;;;;;;;;14.90;65.18;95951.47;4969444;28;19926;-62
2023/10/21 05:21:01;;;;;;;;;;;;;;;14.96;64.19;95960.88;4966871;28;20271;-62
2023/10/21 05:23:30;;;;;;;;;;;;;;;14.97;64.81;95973.38;4967602;28;19926;-62
2023/10/21 05:25:58;;;;;;;;;;;;;;;15.02;64.30;95974.94;4963720;28;19938;-63
2023/10/21 05:28:26;;;;;;;;;;;;;;;14.98;64.52;95985.88;4967039;28;19926;-63
2023/10/21 05:30:53;;;;;;;;;;;;;;;14.99;64.84;95992.13;4969825;28;19922;-62
2023/10/21 05:33:21;;;;;;;;;;;;;;;14.98;64.79;96002.28;4967651;28;20276;-63
2023/10/21 05:35:49;;;;;;;;;;;;;;;14.96;64.16;96004.59;4964970;28;19934;-63
2023/10/21 05:38:17;;;;;;;;;;;;;;;14.96;64.80;96012.81;4967401;28;19934;-63
2023/10/21 05:40:46;;;;;;;;;;;;;;;14.97;65.16;96017.13;4968495;28;20357;-62
2023/10/21 05:43:13;;;;;;;;;;;;;;;14.94;65.32;96020.63;4968549;28;19922;-62
2023/10/21 05:45:42;;;;;;;;;;;;;;;14.93;64.88;96021.81;4960644;28;19926;-63
2023/10/21 05:48:10;;;;;;;;;;;;;;;14.93;64.31;96035.47;4975031;28;19928;-63
2023/10/21 05:50:38;;;;;;;;;;;;;;;14.99;64.46;96035.88;4970190;28;19922;-63
2023/10/21 05:53:06;;;;;;;;;;;;;;;15.01;64.58;96039.78;4964101;28;20376;-62
2023/10/21 05:55:34;;;;;;;;;;;;;;;15.07;64.05;96049.19;4969638;28;19988;-62
2023/10/21 05:58:03;;;;;;;;;;;;;;;15.10;64.00;96048.41;4967951;28;19928;-62
2023/10/21 06:00:31;;;;;;;;;;;;;;;15.12;63.66;96051.53;4969486;28;21828;-62
2023/10/21 06:02:59;;;;;;;;;;;;;;;15.16;63.69;96062.50;4966344;28;19922;-62
2023/10/21 06:05:29;;;;;;;;;;;;;;;15.16;63.74;96074.22;4968236;28;20383;-62
2023/10/21 06:07:57;;;;;;;;;;;;;;;15.25;63.76;96082.06;4970193;28;19981;-62
2023/10/21 06:10:24;;;;;;;;;;;;;;;15.23;63.32;96089.09;4970772;28;19922;-62
2023/10/21 06:12:52;;;;;;;;;;;;;;;15.28;63.71;96097.72;4966329;28;19934;-62
2023/10/21 06:15:22;;;;;;;;;;;;;;;15.24;64.23;96101.63;4981470;28;20398;-62
2023/10/21 06:17:49;;;;;;;;;;;;;;;15.24;64.20;96107.09;4976907;28;19933;-62
2023/10/21 06:20:17;;;;;;;;;;;;;;;15.27;63.42;96112.56;4966895;28;19922;-63
2023/10/21 06:22:45;;;;;;;;;;;;;;;15.25;62.91;96116.88;4968911;28;19922;-62
2023/10/21 06:25:14;;;;;;;;;;;;;;;15.19;63.25;96119.97;4965574;28;20307;-62
2023/10/21 06:27:41;;;;;;;;;;;;;;;15.18;63.87;96114.88;4974732;28;19925;-63
2023/10/21 06:30:10;;;;;;;;;;;;;;;15.17;64.10;96125.03;4969256;28;19934;-62
2023/10/21 06:32:39;;;;;;;;;;;;;;;15.25;63.83;96123.13;4947892;29;20372;-62
2023/10/21 06:35:08;;;;;;;;;;;;;;;15.24;63.82;96134.44;4969375;28;19945;-63
2023/10/21 06:37:35;;;;;;;;;;;;;;;15.23;63.88;96133.63;4971117;28;19926;-63
2023/10/21 06:40:04;;;;;;;;;;;;;;;15.22;64.30;96144.97;4971057;28;19929;-63
2023/10/21 06:42:32;;;;;;;;;;;;;;;15.19;63.91;96147.31;4954541;28;20365;-63
2023/10/21 06:45:00;;;;;;;;;;;;;;;15.27;64.53;96147.34;4962396;28;19937;-62
2023/10/21 06:47:28;;;;;;;;;;;;;;;15.30;64.24;96155.56;4978548;28;20410;-63
2023/10/21 06:49:57;;;;;;;;;;;;;;;15.32;63.98;96163.38;4975628;28;20363;-63
2023/10/21 06:52:25;;;;;;;;;;;;;;;15.35;64.62;96162.63;4966524;28;19929;-63
2023/10/21 06:54:54;;;;;;;;;;;;;;;15.39;64.90;96160.66;4973892;28;19930;-63
2023/10/21 06:57:22;;;;;;;;;;;;;;;15.43;64.38;96162.25;4968119;28;19965;-62
2023/10/21 06:59:52;;;;;;;;;;;;;;;15.45;63.70;96165.41;4973042;28;20372;-62
2023/10/21 07:02:20;;;;;;;;;;;;;;;15.43;62.60;96170.47;4973592;28;19930;-62
2023/10/21 07:04:48;;;;;;;;;;;;;;;15.42;63.79;96176.34;4971140;28;19922;-63
2023/10/21 07:07:17;;;;;;;;;;;;;;;15.47;63.37;96186.91;4965289;28;19922;-62
2023/10/21 07:09:45;;;;;;;;;;;;;;;15.46;63.77;96190.81;4970869;28;20328;-63
2023/10/21 07:12:12;;;;;;;;;;;;;;;15.44;64.29;96188.44;4974211;28;19937;-63
2023/10/21 07:14:40;;;;;;;;;;;;;;;15.46;64.31;96197.06;4968250;28;19922;-63
2023/10/21 07:17:08;;;;;;;;;;;;;;;15.48;64.18;96193.94;4974379;28;19928;-62
2023/10/21 07:19:36;;;;;;;;;;;;;;;15.51;63.72;96200.63;4969781;28;19922;-62
2023/10/21 07:22:04;;;;;;;;;;;;;;;15.53;63.97;96217.44;4969407;28;19926;-62
2023/10/21 07:24:33;;;;;;;;;;;;;;;15.50;63.63;96224.47;4974422;28;19926;-62
2023/10/21 07:27:01;;;;;;;;;;;;;;;15.45;63.95;96230.31;4974365;28;19972;-63
2023/10/21 07:29:29;;;;;;;;;;;;;;;15.46;63.92;96229.13;4974341;28;19922;-62
2023/10/21 07:31:56;;;;;;;;;;;;;;;15.44;64.20;96232.22;4973581;28;19926;-62
2023/10/21 07:34:24;;;;;;;;;;;;;;;15.43;64.39;96232.63;4974005;28;19922;-62
2023/10/21 07:36:53;;;;;;;;;;;;;;;15.48;64.27;96234.22;4971568;28;19926;-63
2023/10/21 07:39:21;;;;;;;;;;;;;;;15.47;64.25;96238.91;4979392;28;20041;-63
2023/10/21 07:41:50;;;;;;;;;;;;;;;15.45;64.45;96246.72;4974583;28;19930;-62
2023/10/21 07:44:18;;;;;;;;;;;;;;;15.47;64.58;96255.31;4956030;28;19922;-63
2023/10/21 07:46:48;;;;;;;;;;;;;;;15.42;63.66;96255.69;4968545;28;19922;-63
2023/10/21 07:49:16;;;;;;;;;;;;;;;15.44;64.74;96264.28;4967840;28;20439;-62
2023/10/21 07:51:43;;;;;;;;;;;;;;;15.46;64.35;96268.22;4973232;28;19929;-62
2023/10/21 07:54:15;;;;;;;;;;;;;;;15.50;64.41;96270.19;4966518;28;19923;-63
2023/10/21 07:56:45;;;;;;;;;;;;;;;15.49;64.44;96272.13;4974911;28;19926;-62
2023/10/21 07:59:17;;;;;;;;;;;;;;;15.57;65.07;96281.19;4969283;28;19922;-63
2023/10/21 08:01:45;;;;;;;;;;;;;;;15.61;64.13;96282.00;4975107;28;20336;-63
2023/10/21 08:04:18;;;;;;;;;;;;;;;15.65;64.29;96289.06;4969915;28;19929;-62
2023/10/21 08:06:46;;;;;;;;;;;;;;;15.69;64.53;96292.63;4966561;28;20083;-62
2023/10/21 08:09:15;;;;;;;;;;;;;;;15.71;65.99;96293.03;4975872;28;19941;-64
2023/10/21 08:11:44;;;;;;;;;;;;;;;15.74;65.10;96304.38;4978704;28;19922;-63
2023/10/21 08:14:12;;;;;;;;;;;;;;;15.76;65.07;96302.03;4974018;28;19933;-63
2023/10/21 08:16:42;;;;;;;;;;;;;;;15.78;64.84;96307.91;4972395;28;19922;-63
2023/10/21 08:19:10;;;;;;;;;;;;;;;15.75;64.71;96316.88;4972300;28;19937;-63
2023/10/21 08:21:38;;;;;;;;;;;;;;;15.69;64.13;96320.00;4972159;28;19922;-63
2023/10/21 08:24:07;;;;;;;;;;;;;;;15.65;64.26;96324.66;4973304;28;20287;-63
2023/10/21 08:26:35;;;;;;;;;;;;;;;15.66;64.74;96325.47;4971961;28;19926;-63
2023/10/21 08:29:03;;;;;;;;;;;;;;;15.68;64.88;96329.38;4973074;28;19922;-63
2023/10/21 08:31:31;;;;;;;;;;;;;;;15.73;65.27;96327.44;4973063;28;19941;-63
2023/10/21 08:34:00;;;;;;;;;;;;;;;15.78;65.32;96338.81;4979167;28;19926;-64
2023/10/21 08:36:28;;;;;;;;;;;;;;;15.84;65.92;96331.03;4978183;28;19968;-63
2023/10/21 08:38:56;;;;;;;;;;;;;;;15.88;65.14;96337.31;4972266;28;20368;-63
2023/10/21 08:41:24;;;;;;;;;;;;;;;15.91;63.85;96339.25;4973387;28;19922;-64
2023/10/21 08:43:52;;;;;;;;;;;;;;;15.99;64.66;96338.16;4972650;28;19943;-63
2023/10/21 08:46:19;;;;;;;;;;;;;;;16.07;64.72;96341.69;4972077;28;19965;-63
2023/10/21 08:48:47;;;;;;;;;;;;;;;16.08;64.47;96348.72;4972874;28;19929;-63
2023/10/21 08:51:18;;;;;;;;;;;;;;;16.14;64.77;96350.72;4972183;28;19922;-63
2023/10/21 08:53:47;;;;;;;;;;;;;;;16.16;64.11;96353.09;4953045;28;19922;-63
2023/10/21 08:56:15;;;;;;;;;;;;;;;16.17;64.05;96354.66;4972565;28;19946;-63
2023/10/21 08:58:43;;;;;;;;;;;;;;;16.20;63.44;96360.16;4971226;28;19990;-64
2023/10/21 09:01:11;;;;;;;;;;;;;;;16.20;62.98;96360.16;4972348;28;19957;-63
2023/10/21 09:03:39;;;;;;;;;;;;;;;16.13;62.87;96360.09;4973057;28;20414;-63
2023/10/21 09:06:10;;;;;;;;;;;;;;;16.16;63.21;96359.34;4967669;28;19922;-63
2023/10/21 09:08:41;;;;;;;;;;;;;;;16.21;63.67;96363.66;4967198;28;20629;-63
2023/10/21 09:11:10;;;;;;;;;;;;;;;16.26;63.82;96368.00;4972524;28;19968;-63
2023/10/21 09:13:39;;;;;;;;;;;;;;;16.26;63.01;96373.47;4971385;28;19922;-64
2023/10/21 09:16:19;;;;;;;;;;;;;;;16.29;62.90;96375.44;4971523;28;19980;-64
2023/10/21 09:18:55;;;;;;;;;;;;;;;16.30;63.21;96371.50;4969632;28;19961;-63
2023/10/21 09:21:33;;;;;;;;;;;;;;;16.34;63.35;96375.06;4966493;28;20489;-63
2023/10/21 09:24:06;;;;;;;;;;;;;;;16.37;62.82;96380.56;4961366;28;19969;-63
2023/10/21 09:26:34;;;;;;;;;;;;;;;16.41;63.41;96383.31;4968380;28;20435;-64
2023/10/21 09:29:06;;;;;;;;;;;;;;;16.46;62.98;96383.72;4968324;28;19930;-64
2023/10/21 09:31:51;;;;;;;;;;;;;;;16.50;63.10;96387.25;4967615;28;19985;-64
2023/10/21 09:34:24;;;;;;;;;;;;;;;16.60;62.95;96387.69;4967494;28;19926;-64
2023/10/21 09:36:53;;;;;;;;;;;;;;;16.65;62.92;96395.53;4961763;28;19932;-63
2023/10/21 09:39:23;;;;;;;;;;;;;;;16.70;62.98;96404.16;4972403;28;20555;-64
2023/10/21 09:41:50;;;;;;;;;;;;;;;16.67;62.56;96398.66;4971566;28;20376;-64
2023/10/21 09:44:18;;;;;;;;;;;;;;;16.68;62.24;96406.50;4970568;28;19928;-64
2023/10/21 09:46:47;;;;;;;;;;;;;;;16.77;62.32;96414.38;4972134;28;19922;-64
2023/10/21 09:49:16;;;;;;;;;;;;;;;16.81;62.79;96420.66;4970709;28;19922;-64
2023/10/21 09:51:47;;;;;;;;;;;;;;;16.89;62.70;96424.22;4974148;28;20427;-63
2023/10/21 09:54:15;;;;;;;;;;;;;;;16.92;62.28;96431.66;4951760;28;19932;-63
2023/10/21 09:56:45;;;;;;;;;;;;;;;16.92;61.92;96432.44;4970882;28;19922;-64
2023/10/21 09:59:12;;;;;;;;;;;;;;;16.87;61.87;96429.31;4971436;28;19923;-64
2023/10/21 10:01:40;;;;;;;;;;;;;;;16.87;61.74;96437.53;4963677;28;19926;-64
2023/10/21 10:04:09;;;;;;;;;;;;;;;16.97;61.82;96439.50;4967396;28;19935;-63
2023/10/21 10:06:38;;;;;;;;;;;;;;;17.00;59.18;96445.03;4966039;28;19926;-64
2023/10/21 10:09:07;;;;;;;;;;;;;;;17.03;59.49;96449.72;4968595;28;19922;-63
2023/10/21 10:11:35;;;;;;;;;;;;;;;17.03;59.36;96443.44;4966420;28;19930;-63
2023/10/21 10:14:05;;;;;;;;;;;;;;;17.00;58.62;96445.03;4967258;28;19922;-63
2023/10/21 10:16:32;;;;;;;;;;;;;;;17.02;59.29;96444.63;4969265;28;19944;-62
2023/10/21 10:19:00;;;;;;;;;;;;;;;16.96;59.26;96448.94;4969026;28;19972;-62
2023/10/21 10:21:28;;;;;;;;;;;;;;;16.98;59.26;96447.34;4968315;28;19922;-62
2023/10/21 10:23:58;;;;;;;;;;;;;;;16.96;59.10;96454.41;4966992;28;19941;-62
2023/10/21 10:26:36;;;;;;;;;;;;;;;17.01;59.04;96451.28;4971167;28;19922;-62
2023/10/21 10:29:25;;;;;;;;;;;;;;;17.02;59.58;96461.09;4966543;28;20406;-62
2023/10/21 10:32:07;;;;;;;;;;;;;;;17.05;58.89;96456.78;4969819;28;20288;-62
2023/10/21 10:34:42;;;;;;;;;;;;;;;17.05;58.60;96457.56;4970890;28;19929;-62
2023/10/21 10:37:23;;;;;;;;;;;;;;;17.12;59.03;96452.09;4967878;28;19935;-62
2023/10/21 10:39:53;;;;;;;;;;;;;;;17.20;59.26;96445.44;4967037;28;19981;-62
2023/10/21 10:42:21;;;;;;;;;;;;;;;17.30;59.21;96441.13;4965652;28;19923;-62
2023/10/21 10:44:50;;;;;;;;;;;;;;;17.36;57.59;96450.53;4944237;28;19922;-62
2023/10/21 10:47:17;;;;;;;;;;;;;;;17.41;57.32;96452.13;4965837;28;19922;-62
2023/10/21 10:49:54;;;;;;;;;;;;;;;17.34;57.10;96458.41;4961696;28;19934;-63
2023/10/21 10:52:28;;;;;;;;;;;;;;;17.29;57.64;96448.59;4966574;28;19922;-62
2023/10/21 10:54:56;;;;;;;;;;;;;;;17.31;57.18;96461.13;4975321;28;19926;-63
2023/10/21 10:57:23;;;;;;;;;;;;;;;17.34;57.43;96458.41;4968388;28;20001;-63
2023/10/21 10:59:53;;;;;;;;;;;;;;;17.37;57.22;96459.59;4954002;28;20387;-62
2023/10/21 11:02:20;;;;;;;;;;;;;;;17.38;56.53;96450.16;4964986;28;19980;-63
2023/10/21 11:04:52;;;;;;;;;;;;;;;17.39;55.87;96459.97;4851918;28;19922;-62
2023/10/21 11:07:26;;;;;;;;;;;;;;;17.37;56.63;96462.34;4945986;28;19969;-63
2023/10/21 11:10:01;;;;;;;;;;;;;;;17.35;57.53;96465.44;4959462;28;19945;-64
2023/10/21 11:12:29;;;;;;;;;;;;;;;17.36;57.53;96460.75;4967055;28;19940;-64
2023/10/21 11:15:01;;;;;;;;;;;;;;;17.33;56.78;96459.56;4964874;28;19945;-63
2023/10/21 11:17:33;;;;;;;;;;;;;;;17.35;57.74;96468.19;4948103;28;19922;-64
2023/10/21 11:20:02;;;;;;;;;;;;;;;17.38;57.04;96463.91;4955375;28;19933;-63
2023/10/21 11:22:30;;;;;;;;;;;;;;;17.38;56.81;96463.91;4962185;28;20530;-63
2023/10/21 11:24:58;;;;;;;;;;;;;;;17.38;57.55;96467.44;4961199;28;20024;-64
2023/10/21 11:27:26;;;;;;;;;;;;;;;17.44;57.42;96468.59;4965147;28;19936;-63
2023/10/21 11:29:54;;;;;;;;;;;;;;;17.42;56.81;96475.69;4963899;28;19923;-63
2023/10/21 11:32:27;;;;;;;;;;;;;;;17.49;57.46;96479.19;4964251;28;19922;-63
2023/10/21 11:34:55;;;;;;;;;;;;;;;17.47;56.90;96475.25;4973864;28;19933;-64
2023/10/21 11:37:22;;;;;;;;;;;;;;;17.52;57.19;96481.19;4962531;28;19926;-63
2023/10/21 11:39:50;;;;;;;;;;;;;;;17.56;56.79;96472.91;4963832;28;19936;-63
2023/10/21 11:42:19;;;;;;;;;;;;;;;17.59;57.25;96485.88;4960855;28;19926;-63
2023/10/21 11:44:56;;;;;;;;;;;;;;;17.60;56.61;96481.94;4965302;28;20028;-63
2023/10/21 11:47:27;;;;;;;;;;;;;;;17.52;57.12;96486.66;4953553;28;20387;-63
2023/10/21 11:49:55;;;;;;;;;;;;;;;17.52;56.73;96494.09;4959710;28;19933;-63
2023/10/21 11:52:23;;;;;;;;;;;;;;;17.54;57.22;96492.53;4953176;28;20002;-63
2023/10/21 11:58:00;;;;;;;;;;;;;;;17.47;57.27;96497.22;4960055;28;20448;-64
2023/10/21 12:12:16;;;;;;;;;;;;;;;17.51;58.95;96514.50;4965040;28;19934;-65
2023/10/21 12:21:12;;;;;;;;;;;;;;;17.54;58.77;96520.00;4882410;29;20345;-64
2023/10/21 12:31:58;;;;;;;;;;;;;;;17.53;59.21;96521.19;4945174;28;19926;-63
2023/10/21 12:34:35;;;;;;;;;;;;;;;17.54;59.57;96517.25;4953604;28;19938;-64
2023/10/21 12:37:28;;;;;;;;;;;;;;;17.58;60.29;96519.19;4954642;28;20013;-63
2023/10/21 12:40:01;;;;;;;;;;;;;;;17.60;60.38;96525.88;4960015;28;19933;-64
2023/10/21 12:42:34;;;;;;;;;;;;;;;17.58;60.06;96519.19;4961354;28;20519;-63
2023/10/21 12:45:08;;;;;;;;;;;;;;;17.59;60.11;96527.06;4955888;28;19933;-65
2023/10/21 12:47:35;;;;;;;;;;;;;;;17.63;60.38;96519.63;4963719;28;19926;-65
2023/10/21 12:50:12;;;;;;;;;;;;;;;17.62;59.68;96522.75;4965219;28;19969;-65
2023/10/21 12:52:43;;;;;;;;;;;;;;;17.58;59.54;96514.53;4969060;28;19926;-65
2023/10/21 12:55:11;;;;;;;;;;;;;;;17.55;59.56;96512.53;4963078;28;19921;-66
2023/10/21 12:57:39;;;;;;;;;;;;;;;17.54;60.42;96516.47;4966316;28;20009;-66
2023/10/21 13:00:09;;;;;;;;;;;;;;;17.52;60.62;96513.31;4966040;28;20226;-65
2023/10/21 13:02:39;;;;;;;;;;;;;;;17.49;60.84;96527.84;4964278;28;19945;-65
2023/10/21 13:05:08;;;;;;;;;;;;;;;17.50;60.64;96529.41;4966048;28;19934;-65
2023/10/21 13:07:38;;;;;;;;;;;;;;;17.35;60.82;96530.53;4957325;28;20615;-65
2023/10/21 13:10:09;;;;;;;;;;;;;;;17.41;60.65;96528.97;4951992;28;19926;-64
2023/10/21 13:12:37;;;;;;;;;;;;;;;17.38;60.90;96532.53;4950297;28;19930;-65
2023/10/21 13:15:11;;;;;;;;;;;;;;;17.37;61.13;96539.19;4961278;28;19926;-64
2023/10/21 13:17:39;;;;;;;;;;;;;;;17.36;60.79;96543.09;4950132;28;20293;-64
2023/10/21 13:20:16;;;;;;;;;;;;;;;17.34;60.74;96542.72;4956770;28;19930;-66
2023/10/21 13:22:44;;;;;;;;;;;;;;;17.32;60.97;96548.59;4962445;28;19923;-64
2023/10/21 13:25:14;;;;;;;;;;;;;;;17.31;61.29;96546.22;4962936;28;19949;-65
2023/10/21 13:27:46;;;;;;;;;;;;;;;17.31;61.00;96535.22;4964586;28;20017;-76